sensor_id;sensor_type;location;lat;lon;timestamp;temperature;humidity
20750;DHT22;10535;50.664;4.564;2023-07-08T00:02:11;18.70;99.90
20750;DHT22;10535;50.664;4.564;2023-07-08T00:04:38;18.70;99.90
20750;DHT22;10535;50.664;4.564;2023-07-08T00:07:04;18.60;99.90
20750;DHT22;10535;50.664;4.564;2023-07-08T00:09:30;18.60;99.90
20750;DHT22;10535;50.664;4.564;2023-07-08T00:11:56;18.70;99.90
20750;DHT22;10535;50.664;4.564;2023-07-08T00:14:25;18.80;99.90
20750;DHT22;10535;50.664;4.564;2023-07-08T00:16:51;18.60;99.90
20750;DHT22;10535;50.664;4.564;2023-07-08T00:19:17;18.50;99.90
20750;DHT22;10535;50.664;4.564;2023-07-08T00:21:45;18.40;99.90
20750;DHT22;10535;50.664;4.564;2023-07-08T00:24:11;18.40;99.90
20750;DHT22;10535;50.664;4.564;2023-07-08T00:26:37;18.30;99.90
20750;DHT22;10535;50.664;4.564;2023-07-08T00:29:08;18.30;99.90
20750;DHT22;10535;50.664;4.564;2023-07-08T00:31:35;18.20;99.90
20750;DHT22;10535;50.664;4.564;2023-07-08T00:34:01;18.30;99.90
20750;DHT22;10535;50.664;4.564;2023-07-08T00:36:29;18.30;99.90
20750;DHT22;10535;50.664;4.564;2023-07-08T00:38:56;18.30;99.90
20750;DHT22;10535;50.664;4.564;2023-07-08T00:41:44;18.30;99.90
20750;DHT22;10535;50.664;4.564;2023-07-08T00:44:12;18.30;99.90
20750;DHT22;10535;50.664;4.564;2023-07-08T00:46:43;18.10;99.90
20750;DHT22;10535;50.664;4.564;2023-07-08T00:51:51;18.20;99.90
20750;DHT22;10535;50.664;4.564;2023-07-08T00:54:18;18.10;99.90
20750;DHT22;10535;50.664;4.564;2023-07-08T00:57:00;18.10;99.90
20750;DHT22;10535;50.664;4.564;2023-07-08T00:59:40;18.00;99.90
20750;DHT22;10535;50.664;4.564;2023-07-08T01:02:09;18.00;99.90
20750;DHT22;10535;50.664;4.564;2023-07-08T01:04:52;17.90;99.90
20750;DHT22;10535;50.664;4.564;2023-07-08T01:07:19;18.00;99.90
20750;DHT22;10535;50.664;4.564;2023-07-08T01:09:50;18.10;99.90
20750;DHT22;10535;50.664;4.564;2023-07-08T01:12:23;18.00;99.90
20750;DHT22;10535;50.664;4.564;2023-07-08T01:14:52;18.10;99.90
20750;DHT22;10535;50.664;4.564;2023-07-08T01:17:20;18.00;99.90
20750;DHT22;10535;50.664;4.564;2023-07-08T01:19:45;17.90;99.90
20750;DHT22;10535;50.664;4.564;2023-07-08T01:22:12;17.90;99.90
20750;DHT22;10535;50.664;4.564;2023-07-08T01:24:40;17.80;99.90
20750;DHT22;10535;50.664;4.564;2023-07-08T01:27:10;17.90;99.90
20750;DHT22;10535;50.664;4.564;2023-07-08T01:29:37;17.90;99.90
20750;DHT22;10535;50.664;4.564;2023-07-08T01:32:03;17.90;99.90
20750;DHT22;10535;50.664;4.564;2023-07-08T01:34:30;17.90;99.90
20750;DHT22;10535;50.664;4.564;2023-07-08T01:36:59;17.80;99.90
20750;DHT22;10535;50.664;4.564;2023-07-08T01:39:27;17.70;99.90
20750;DHT22;10535;50.664;4.564;2023-07-08T01:41:53;17.70;99.90
20750;DHT22;10535;50.664;4.564;2023-07-08T01:44:39;17.70;99.90
20750;DHT22;10535;50.664;4.564;2023-07-08T01:47:19;17.70;99.90
20750;DHT22;10535;50.664;4.564;2023-07-08T01:49:47;17.60;99.90
20750;DHT22;10535;50.664;4.564;2023-07-08T01:52:16;17.60;99.90
20750;DHT22;10535;50.664;4.564;2023-07-08T01:54:43;17.50;99.90
20750;DHT22;10535;50.664;4.564;2023-07-08T01:57:08;17.50;99.90
20750;DHT22;10535;50.664;4.564;2023-07-08T01:59:34;17.40;99.90
20750;DHT22;10535;50.664;4.564;2023-07-08T02:02:00;17.40;99.90
20750;DHT22;10535;50.664;4.564;2023-07-08T02:04:26;17.40;99.90
20750;DHT22;10535;50.664;4.564;2023-07-08T02:06:57;17.40;99.90
20750;DHT22;10535;50.664;4.564;2023-07-08T02:09:24;17.30;99.90
20750;DHT22;10535;50.664;4.564;2023-07-08T02:11:51;17.30;99.90
20750;DHT22;10535;50.664;4.564;2023-07-08T02:14:18;17.20;99.90
20750;DHT22;10535;50.664;4.564;2023-07-08T02:16:43;17.30;99.90
20750;DHT22;10535;50.664;4.564;2023-07-08T02:19:10;17.10;99.90
20750;DHT22;10535;50.664;4.564;2023-07-08T02:21:35;17.10;99.90
20750;DHT22;10535;50.664;4.564;2023-07-08T02:24:02;17.10;99.90
20750;DHT22;10535;50.664;4.564;2023-07-08T02:26:27;17.00;99.90
20750;DHT22;10535;50.664;4.564;2023-07-08T02:28:54;17.00;99.90
20750;DHT22;10535;50.664;4.564;2023-07-08T02:31:20;17.00;99.90
20750;DHT22;10535;50.664;4.564;2023-07-08T02:33:50;17.00;99.90
20750;DHT22;10535;50.664;4.564;2023-07-08T02:36:16;16.90;99.90
20750;DHT22;10535;50.664;4.564;2023-07-08T02:38:41;16.90;99.90
20750;DHT22;10535;50.664;4.564;2023-07-08T02:41:07;16.90;99.90
20750;DHT22;10535;50.664;4.564;2023-07-08T02:43:33;17.00;99.90
20750;DHT22;10535;50.664;4.564;2023-07-08T02:45:58;17.00;99.90
20750;DHT22;10535;50.664;4.564;2023-07-08T02:48:24;17.00;99.90
20750;DHT22;10535;50.664;4.564;2023-07-08T02:50:49;17.10;99.90
20750;DHT22;10535;50.664;4.564;2023-07-08T02:53:15;17.10;99.90
20750;DHT22;10535;50.664;4.564;2023-07-08T02:55:41;16.90;99.90
20750;DHT22;10535;50.664;4.564;2023-07-08T02:58:11;17.00;99.90
20750;DHT22;10535;50.664;4.564;2023-07-08T03:00:36;17.00;99.90
20750;DHT22;10535;50.664;4.564;2023-07-08T03:03:03;17.10;99.90
20750;DHT22;10535;50.664;4.564;2023-07-08T03:05:29;17.00;99.90
20750;DHT22;10535;50.664;4.564;2023-07-08T03:07:56;17.10;99.90
20750;DHT22;10535;50.664;4.564;2023-07-08T03:10:21;17.20;99.90
20750;DHT22;10535;50.664;4.564;2023-07-08T03:12:48;17.10;99.90
20750;DHT22;10535;50.664;4.564;2023-07-08T03:15:14;17.10;99.90
20750;DHT22;10535;50.664;4.564;2023-07-08T03:17:40;17.10;99.90
20750;DHT22;10535;50.664;4.564;2023-07-08T03:20:06;17.10;99.90
20750;DHT22;10535;50.664;4.564;2023-07-08T03:22:32;17.00;99.90
20750;DHT22;10535;50.664;4.564;2023-07-08T03:24:58;17.00;99.90
20750;DHT22;10535;50.664;4.564;2023-07-08T03:27:23;16.90;99.90
20750;DHT22;10535;50.664;4.564;2023-07-08T03:29:50;16.80;99.90
20750;DHT22;10535;50.664;4.564;2023-07-08T03:32:16;16.90;99.90
20750;DHT22;10535;50.664;4.564;2023-07-08T03:34:41;16.80;99.90
20750;DHT22;10535;50.664;4.564;2023-07-08T03:37:09;16.90;99.90
20750;DHT22;10535;50.664;4.564;2023-07-08T03:39:35;16.80;99.90
20750;DHT22;10535;50.664;4.564;2023-07-08T03:42:01;16.80;99.90
20750;DHT22;10535;50.664;4.564;2023-07-08T03:44:27;16.70;99.90
20750;DHT22;10535;50.664;4.564;2023-07-08T03:46:52;16.70;99.90
20750;DHT22;10535;50.664;4.564;2023-07-08T03:49:19;16.80;99.90
20750;DHT22;10535;50.664;4.564;2023-07-08T03:51:48;16.80;99.90
20750;DHT22;10535;50.664;4.564;2023-07-08T03:54:15;16.70;99.90
20750;DHT22;10535;50.664;4.564;2023-07-08T03:56:41;16.70;99.90
20750;DHT22;10535;50.664;4.564;2023-07-08T03:59:07;16.80;99.90
20750;DHT22;10535;50.664;4.564;2023-07-08T04:01:33;16.80;99.90
20750;DHT22;10535;50.664;4.564;2023-07-08T04:04:00;16.90;99.90
20750;DHT22;10535;50.664;4.564;2023-07-08T04:06:26;16.90;99.90
20750;DHT22;10535;50.664;4.564;2023-07-08T04:08:54;16.90;99.90
20750;DHT22;10535;50.664;4.564;2023-07-08T04:11:22;17.00;99.90
20750;DHT22;10535;50.664;4.564;2023-07-08T04:13:49;17.00;99.90
20750;DHT22;10535;50.664;4.564;2023-07-08T04:16:27;16.90;99.90
20750;DHT22;10535;50.664;4.564;2023-07-08T04:18:54;16.90;99.90
20750;DHT22;10535;50.664;4.564;2023-07-08T04:21:21;17.00;99.90
20750;DHT22;10535;50.664;4.564;2023-07-08T04:23:48;17.00;99.90
20750;DHT22;10535;50.664;4.564;2023-07-08T04:26:15;17.10;99.90
20750;DHT22;10535;50.664;4.564;2023-07-08T04:28:42;17.00;99.90
20750;DHT22;10535;50.664;4.564;2023-07-08T04:31:07;17.20;99.90
20750;DHT22;10535;50.664;4.564;2023-07-08T04:33:33;17.30;99.90
20750;DHT22;10535;50.664;4.564;2023-07-08T04:35:58;17.30;99.90
20750;DHT22;10535;50.664;4.564;2023-07-08T04:38:25;17.30;99.90
20750;DHT22;10535;50.664;4.564;2023-07-08T04:40:52;17.40;99.90
20750;DHT22;10535;50.664;4.564;2023-07-08T04:43:19;17.50;99.90
20750;DHT22;10535;50.664;4.564;2023-07-08T04:45:48;17.60;99.90
20750;DHT22;10535;50.664;4.564;2023-07-08T04:48:19;17.70;99.90
20750;DHT22;10535;50.664;4.564;2023-07-08T04:50:50;17.80;99.90
20750;DHT22;10535;50.664;4.564;2023-07-08T04:53:16;17.80;99.90
20750;DHT22;10535;50.664;4.564;2023-07-08T04:55:44;18.00;99.90
20750;DHT22;10535;50.664;4.564;2023-07-08T04:58:11;18.10;99.90
20750;DHT22;10535;50.664;4.564;2023-07-08T05:00:36;18.20;99.90
20750;DHT22;10535;50.664;4.564;2023-07-08T05:03:02;18.50;99.90
20750;DHT22;10535;50.664;4.564;2023-07-08T05:05:29;18.80;99.90
20750;DHT22;10535;50.664;4.564;2023-07-08T05:07:55;19.30;99.90
20750;DHT22;10535;50.664;4.564;2023-07-08T05:10:21;19.90;99.90
20750;DHT22;10535;50.664;4.564;2023-07-08T05:12:47;20.60;99.90
20750;DHT22;10535;50.664;4.564;2023-07-08T05:15:13;21.30;99.90
20750;DHT22;10535;50.664;4.564;2023-07-08T05:17:40;21.90;99.90
20750;DHT22;10535;50.664;4.564;2023-07-08T05:20:08;22.30;99.90
20750;DHT22;10535;50.664;4.564;2023-07-08T05:22:34;22.80;99.90
20750;DHT22;10535;50.664;4.564;2023-07-08T05:25:00;23.40;99.90
20750;DHT22;10535;50.664;4.564;2023-07-08T05:27:27;23.70;99.90
20750;DHT22;10535;50.664;4.564;2023-07-08T05:29:53;24.20;99.90
20750;DHT22;10535;50.664;4.564;2023-07-08T05:32:19;24.40;99.90
20750;DHT22;10535;50.664;4.564;2023-07-08T05:34:45;24.60;99.90
20750;DHT22;10535;50.664;4.564;2023-07-08T05:37:12;24.80;99.90
20750;DHT22;10535;50.664;4.564;2023-07-08T05:39:37;24.90;99.90
20750;DHT22;10535;50.664;4.564;2023-07-08T05:42:03;25.10;99.90
20750;DHT22;10535;50.664;4.564;2023-07-08T05:44:29;25.60;99.90
20750;DHT22;10535;50.664;4.564;2023-07-08T05:46:54;25.90;99.90
20750;DHT22;10535;50.664;4.564;2023-07-08T05:49:20;26.10;99.90
20750;DHT22;10535;50.664;4.564;2023-07-08T05:51:46;26.40;99.90
20750;DHT22;10535;50.664;4.564;2023-07-08T05:54:12;26.40;99.90
20750;DHT22;10535;50.664;4.564;2023-07-08T05:56:38;26.60;99.90
20750;DHT22;10535;50.664;4.564;2023-07-08T05:59:04;26.80;99.90
20750;DHT22;10535;50.664;4.564;2023-07-08T06:01:30;26.90;99.90
20750;DHT22;10535;50.664;4.564;2023-07-08T06:03:56;26.60;99.90
20750;DHT22;10535;50.664;4.564;2023-07-08T06:06:27;26.30;99.90
20750;DHT22;10535;50.664;4.564;2023-07-08T06:08:53;25.80;99.90
20750;DHT22;10535;50.664;4.564;2023-07-08T06:11:18;25.40;99.90
20750;DHT22;10535;50.664;4.564;2023-07-08T06:13:44;25.20;99.90
20750;DHT22;10535;50.664;4.564;2023-07-08T06:16:10;25.10;99.90
20750;DHT22;10535;50.664;4.564;2023-07-08T06:18:36;24.70;99.90
20750;DHT22;10535;50.664;4.564;2023-07-08T06:21:02;24.70;99.90
20750;DHT22;10535;50.664;4.564;2023-07-08T06:23:28;24.60;99.90
20750;DHT22;10535;50.664;4.564;2023-07-08T06:25:54;25.10;99.90
20750;DHT22;10535;50.664;4.564;2023-07-08T06:28:20;25.80;99.90
20750;DHT22;10535;50.664;4.564;2023-07-08T06:30:46;26.40;99.90
20750;DHT22;10535;50.664;4.564;2023-07-08T06:33:12;26.70;99.90
20750;DHT22;10535;50.664;4.564;2023-07-08T06:35:38;27.00;99.90
20750;DHT22;10535;50.664;4.564;2023-07-08T06:38:05;27.10;99.90
20750;DHT22;10535;50.664;4.564;2023-07-08T06:40:32;27.50;99.90
20750;DHT22;10535;50.664;4.564;2023-07-08T06:42:58;28.10;99.90
20750;DHT22;10535;50.664;4.564;2023-07-08T06:45:23;28.50;99.90
20750;DHT22;10535;50.664;4.564;2023-07-08T06:47:49;28.70;99.90
20750;DHT22;10535;50.664;4.564;2023-07-08T06:50:15;28.80;99.90
20750;DHT22;10535;50.664;4.564;2023-07-08T06:52:40;29.10;99.90
20750;DHT22;10535;50.664;4.564;2023-07-08T06:55:08;29.60;99.90
20750;DHT22;10535;50.664;4.564;2023-07-08T06:57:34;29.70;99.90
20750;DHT22;10535;50.664;4.564;2023-07-08T07:00:00;29.60;99.90
20750;DHT22;10535;50.664;4.564;2023-07-08T07:02:27;29.70;99.90
20750;DHT22;10535;50.664;4.564;2023-07-08T07:04:53;29.90;99.90
20750;DHT22;10535;50.664;4.564;2023-07-08T07:07:19;29.90;99.90
20750;DHT22;10535;50.664;4.564;2023-07-08T07:09:44;30.30;99.90
20750;DHT22;10535;50.664;4.564;2023-07-08T07:12:10;30.60;99.90
20750;DHT22;10535;50.664;4.564;2023-07-08T07:14:35;31.10;99.90
20750;DHT22;10535;50.664;4.564;2023-07-08T07:17:01;31.40;99.90
20750;DHT22;10535;50.664;4.564;2023-07-08T07:19:27;31.40;99.90
20750;DHT22;10535;50.664;4.564;2023-07-08T07:21:53;31.90;99.90
20750;DHT22;10535;50.664;4.564;2023-07-08T07:24:18;32.10;99.90
20750;DHT22;10535;50.664;4.564;2023-07-08T07:26:44;32.30;99.90
20750;DHT22;10535;50.664;4.564;2023-07-08T07:29:10;32.30;99.90
20750;DHT22;10535;50.664;4.564;2023-07-08T07:31:36;32.20;99.90
20750;DHT22;10535;50.664;4.564;2023-07-08T07:34:02;32.50;99.90
20750;DHT22;10535;50.664;4.564;2023-07-08T07:36:28;32.20;99.90
20750;DHT22;10535;50.664;4.564;2023-07-08T07:38:54;32.50;99.90
20750;DHT22;10535;50.664;4.564;2023-07-08T07:41:22;32.10;99.90
20750;DHT22;10535;50.664;4.564;2023-07-08T07:43:47;32.30;99.90
20750;DHT22;10535;50.664;4.564;2023-07-08T07:46:13;32.90;99.90
20750;DHT22;10535;50.664;4.564;2023-07-08T07:48:39;32.40;99.90
20750;DHT22;10535;50.664;4.564;2023-07-08T07:51:06;32.00;99.90
20750;DHT22;10535;50.664;4.564;2023-07-08T07:53:38;31.80;99.90
20750;DHT22;10535;50.664;4.564;2023-07-08T07:56:04;31.50;99.90
20750;DHT22;10535;50.664;4.564;2023-07-08T07:58:30;30.90;99.90
20750;DHT22;10535;50.664;4.564;2023-07-08T08:00:58;31.20;99.90
20750;DHT22;10535;50.664;4.564;2023-07-08T08:03:24;30.60;99.90
20750;DHT22;10535;50.664;4.564;2023-07-08T08:05:50;30.40;99.90
20750;DHT22;10535;50.664;4.564;2023-07-08T08:08:16;30.20;99.90
20750;DHT22;10535;50.664;4.564;2023-07-08T08:10:45;29.90;99.90
20750;DHT22;10535;50.664;4.564;2023-07-08T08:13:11;29.80;99.90
20750;DHT22;10535;50.664;4.564;2023-07-08T08:15:37;29.80;99.90
20750;DHT22;10535;50.664;4.564;2023-07-08T08:18:03;29.80;99.90
20750;DHT22;10535;50.664;4.564;2023-07-08T08:20:29;29.70;99.90
20750;DHT22;10535;50.664;4.564;2023-07-08T08:22:56;29.60;99.90
20750;DHT22;10535;50.664;4.564;2023-07-08T08:25:24;29.70;99.90
20750;DHT22;10535;50.664;4.564;2023-07-08T08:27:50;29.70;99.90
20750;DHT22;10535;50.664;4.564;2023-07-08T08:30:17;29.90;99.90
20750;DHT22;10535;50.664;4.564;2023-07-08T08:32:43;29.80;99.90
20750;DHT22;10535;50.664;4.564;2023-07-08T08:35:09;30.00;99.90
20750;DHT22;10535;50.664;4.564;2023-07-08T08:37:34;30.20;99.90
20750;DHT22;10535;50.664;4.564;2023-07-08T08:40:00;30.10;99.90
20750;DHT22;10535;50.664;4.564;2023-07-08T08:44:52;30.40;99.90
20750;DHT22;10535;50.664;4.564;2023-07-08T08:47:40;30.30;99.90
20750;DHT22;10535;50.664;4.564;2023-07-08T08:52:44;30.50;99.90
20750;DHT22;10535;50.664;4.564;2023-07-08T08:55:14;30.60;99.90
20750;DHT22;10535;50.664;4.564;2023-07-08T08:57:48;30.70;99.90
20750;DHT22;10535;50.664;4.564;2023-07-08T09:00:22;30.60;99.90
20750;DHT22;10535;50.664;4.564;2023-07-08T09:02:59;30.60;99.90
20750;DHT22;10535;50.664;4.564;2023-07-08T09:05:27;30.60;99.90
20750;DHT22;10535;50.664;4.564;2023-07-08T09:10:58;30.60;99.90
20750;DHT22;10535;50.664;4.564;2023-07-08T09:13:35;30.60;99.90
20750;DHT22;10535;50.664;4.564;2023-07-08T09:19:23;30.60;99.90
20750;DHT22;10535;50.664;4.564;2023-07-08T09:22:17;30.40;99.90
20750;DHT22;10535;50.664;4.564;2023-07-08T09:24:51;30.30;99.90
20750;DHT22;10535;50.664;4.564;2023-07-08T09:27:18;30.50;99.90
20750;DHT22;10535;50.664;4.564;2023-07-08T09:29:45;30.70;99.90
20750;DHT22;10535;50.664;4.564;2023-07-08T09:32:18;30.60;99.90
20750;DHT22;10535;50.664;4.564;2023-07-08T09:34:55;30.20;99.90
20750;DHT22;10535;50.664;4.564;2023-07-08T09:37:28;30.20;99.90
20750;DHT22;10535;50.664;4.564;2023-07-08T09:39:55;30.10;99.90
20750;DHT22;10535;50.664;4.564;2023-07-08T09:42:32;30.20;99.90
20750;DHT22;10535;50.664;4.564;2023-07-08T09:45:14;30.20;99.90
20750;DHT22;10535;50.664;4.564;2023-07-08T09:47:40;30.40;99.90
20750;DHT22;10535;50.664;4.564;2023-07-08T09:52:54;30.60;99.90
20750;DHT22;10535;50.664;4.564;2023-07-08T09:55:23;30.90;99.90
20750;DHT22;10535;50.664;4.564;2023-07-08T09:57:50;31.00;99.90
20750;DHT22;10535;50.664;4.564;2023-07-08T10:00:25;31.00;99.90
20750;DHT22;10535;50.664;4.564;2023-07-08T10:02:55;30.80;99.90
20750;DHT22;10535;50.664;4.564;2023-07-08T10:05:40;30.90;99.90
20750;DHT22;10535;50.664;4.564;2023-07-08T10:08:42;31.20;99.90
20750;DHT22;10535;50.664;4.564;2023-07-08T10:13:53;31.70;99.90
20750;DHT22;10535;50.664;4.564;2023-07-08T10:16:31;31.80;99.90
20750;DHT22;10535;50.664;4.564;2023-07-08T10:18:58;31.80;99.90
20750;DHT22;10535;50.664;4.564;2023-07-08T10:27:02;31.30;99.90
20750;DHT22;10535;50.664;4.564;2023-07-08T10:34:46;32.30;99.90
20750;DHT22;10535;50.664;4.564;2023-07-08T10:37:41;32.30;99.90
20750;DHT22;10535;50.664;4.564;2023-07-08T10:43:29;32.40;99.90
20750;DHT22;10535;50.664;4.564;2023-07-08T10:46:24;32.60;99.90
20750;DHT22;10535;50.664;4.564;2023-07-08T10:54:44;33.00;99.90
20750;DHT22;10535;50.664;4.564;2023-07-08T11:00:36;33.10;99.90
20750;DHT22;10535;50.664;4.564;2023-07-08T11:06:18;33.10;99.90
20750;DHT22;10535;50.664;4.564;2023-07-08T11:09:25;33.10;99.90
20750;DHT22;10535;50.664;4.564;2023-07-08T11:18:47;33.00;99.90
20750;DHT22;10535;50.664;4.564;2023-07-08T11:22:10;33.00;99.90
20750;DHT22;10535;50.664;4.564;2023-07-08T11:25:39;32.60;99.90
20750;DHT22;10535;50.664;4.564;2023-07-08T11:28:45;32.90;99.90
20750;DHT22;10535;50.664;4.564;2023-07-08T11:31:32;33.10;99.90
20750;DHT22;10535;50.664;4.564;2023-07-08T11:35:01;33.30;99.90
20750;DHT22;10535;50.664;4.564;2023-07-08T11:37:49;33.60;99.90
20750;DHT22;10535;50.664;4.564;2023-07-08T11:41:02;33.80;99.90
20750;DHT22;10535;50.664;4.564;2023-07-08T11:44:10;33.90;99.90
20750;DHT22;10535;50.664;4.564;2023-07-08T11:47:10;34.00;99.90
20750;DHT22;10535;50.664;4.564;2023-07-08T11:53:07;33.80;99.90
20750;DHT22;10535;50.664;4.564;2023-07-08T11:56:19;33.30;99.90
20750;DHT22;10535;50.664;4.564;2023-07-08T11:58:50;33.10;99.90
20750;DHT22;10535;50.664;4.564;2023-07-08T12:07:44;32.70;99.90
20750;DHT22;10535;50.664;4.564;2023-07-08T12:10:28;32.90;99.90
20750;DHT22;10535;50.664;4.564;2023-07-08T12:13:38;32.90;99.90
20750;DHT22;10535;50.664;4.564;2023-07-08T12:16:31;32.70;99.90
20750;DHT22;10535;50.664;4.564;2023-07-08T12:19:06;31.70;99.90
20750;DHT22;10535;50.664;4.564;2023-07-08T12:21:41;30.50;99.90
20750;DHT22;10535;50.664;4.564;2023-07-08T12:24:09;29.60;99.90
20750;DHT22;10535;50.664;4.564;2023-07-08T12:26:36;28.20;99.90
20750;DHT22;10535;50.664;4.564;2023-07-08T12:29:02;26.30;99.90
20750;DHT22;10535;50.664;4.564;2023-07-08T12:31:28;24.20;99.90
20750;DHT22;10535;50.664;4.564;2023-07-08T12:33:54;22.90;99.90
20750;DHT22;10535;50.664;4.564;2023-07-08T12:36:26;21.80;99.90
20750;DHT22;10535;50.664;4.564;2023-07-08T12:38:54;21.00;99.90
20750;DHT22;10535;50.664;4.564;2023-07-08T12:41:34;20.50;99.90
20750;DHT22;10535;50.664;4.564;2023-07-08T12:44:01;20.40;99.90
20750;DHT22;10535;50.664;4.564;2023-07-08T12:46:27;20.60;99.90
20750;DHT22;10535;50.664;4.564;2023-07-08T12:48:54;20.70;99.90
20750;DHT22;10535;50.664;4.564;2023-07-08T12:51:25;21.10;99.90
20750;DHT22;10535;50.664;4.564;2023-07-08T12:53:51;21.60;99.90
20750;DHT22;10535;50.664;4.564;2023-07-08T12:56:19;22.10;99.90
20750;DHT22;10535;50.664;4.564;2023-07-08T12:58:52;22.60;99.90
20750;DHT22;10535;50.664;4.564;2023-07-08T13:01:26;22.90;99.90
20750;DHT22;10535;50.664;4.564;2023-07-08T13:03:56;23.50;99.90
20750;DHT22;10535;50.664;4.564;2023-07-08T13:06:31;23.70;99.90
20750;DHT22;10535;50.664;4.564;2023-07-08T13:09:04;23.90;99.90
20750;DHT22;10535;50.664;4.564;2023-07-08T13:11:31;24.20;99.90
20750;DHT22;10535;50.664;4.564;2023-07-08T13:14:04;24.60;99.90
20750;DHT22;10535;50.664;4.564;2023-07-08T13:16:32;24.80;99.90
20750;DHT22;10535;50.664;4.564;2023-07-08T13:18:59;25.40;99.90
20750;DHT22;10535;50.664;4.564;2023-07-08T13:21:26;25.60;99.90
20750;DHT22;10535;50.664;4.564;2023-07-08T13:23:56;26.20;99.90
20750;DHT22;10535;50.664;4.564;2023-07-08T13:26:25;26.50;99.90
20750;DHT22;10535;50.664;4.564;2023-07-08T13:29:00;26.90;99.90
20750;DHT22;10535;50.664;4.564;2023-07-08T13:31:36;27.40;99.90
20750;DHT22;10535;50.664;4.564;2023-07-08T13:34:19;27.90;99.90
20750;DHT22;10535;50.664;4.564;2023-07-08T13:36:48;28.60;99.90
20750;DHT22;10535;50.664;4.564;2023-07-08T13:39:29;28.90;99.90
20750;DHT22;10535;50.664;4.564;2023-07-08T13:41:56;29.20;99.90
20750;DHT22;10535;50.664;4.564;2023-07-08T13:44:26;29.70;99.90
20750;DHT22;10535;50.664;4.564;2023-07-08T13:46:58;29.60;99.90
20750;DHT22;10535;50.664;4.564;2023-07-08T13:49:31;29.60;99.90
20750;DHT22;10535;50.664;4.564;2023-07-08T13:54:48;29.20;99.90
20750;DHT22;10535;50.664;4.564;2023-07-08T13:57:17;29.20;99.90
20750;DHT22;10535;50.664;4.564;2023-07-08T13:59:44;29.10;99.90
20750;DHT22;10535;50.664;4.564;2023-07-08T14:02:19;29.10;99.90
20750;DHT22;10535;50.664;4.564;2023-07-08T14:04:45;29.10;99.90
20750;DHT22;10535;50.664;4.564;2023-07-08T14:07:17;29.40;99.90
20750;DHT22;10535;50.664;4.564;2023-07-08T14:09:43;30.20;99.90
20750;DHT22;10535;50.664;4.564;2023-07-08T14:12:09;30.70;99.90
20750;DHT22;10535;50.664;4.564;2023-07-08T14:14:35;31.10;99.90
20750;DHT22;10535;50.664;4.564;2023-07-08T14:17:01;31.50;99.90
20750;DHT22;10535;50.664;4.564;2023-07-08T14:19:29;31.40;99.90
20750;DHT22;10535;50.664;4.564;2023-07-08T14:21:59;31.30;99.90
20750;DHT22;10535;50.664;4.564;2023-07-08T14:24:25;31.40;99.90
20750;DHT22;10535;50.664;4.564;2023-07-08T14:26:52;31.20;99.90
20750;DHT22;10535;50.664;4.564;2023-07-08T14:29:19;31.30;99.90
20750;DHT22;10535;50.664;4.564;2023-07-08T14:31:45;31.20;99.90
20750;DHT22;10535;50.664;4.564;2023-07-08T14:34:25;31.30;99.90
20750;DHT22;10535;50.664;4.564;2023-07-08T14:36:51;31.40;99.90
20750;DHT22;10535;50.664;4.564;2023-07-08T14:39:18;31.40;99.90
20750;DHT22;10535;50.664;4.564;2023-07-08T14:41:46;31.50;99.90
20750;DHT22;10535;50.664;4.564;2023-07-08T14:46:47;31.70;99.90
20750;DHT22;10535;50.664;4.564;2023-07-08T14:49:18;31.60;99.90
20750;DHT22;10535;50.664;4.564;2023-07-08T14:51:44;31.40;99.90
20750;DHT22;10535;50.664;4.564;2023-07-08T14:54:10;31.60;99.90
20750;DHT22;10535;50.664;4.564;2023-07-08T14:56:36;31.50;99.90
20750;DHT22;10535;50.664;4.564;2023-07-08T14:59:02;31.40;99.90
20750;DHT22;10535;50.664;4.564;2023-07-08T15:01:28;31.40;99.90
20750;DHT22;10535;50.664;4.564;2023-07-08T15:03:56;31.40;99.90
20750;DHT22;10535;50.664;4.564;2023-07-08T15:06:23;31.50;99.90
20750;DHT22;10535;50.664;4.564;2023-07-08T15:08:48;31.60;99.90
20750;DHT22;10535;50.664;4.564;2023-07-08T15:11:14;31.40;99.90
20750;DHT22;10535;50.664;4.564;2023-07-08T15:13:41;31.50;99.90
20750;DHT22;10535;50.664;4.564;2023-07-08T15:16:15;31.50;99.90
20750;DHT22;10535;50.664;4.564;2023-07-08T15:18:41;31.50;99.90
20750;DHT22;10535;50.664;4.564;2023-07-08T15:21:13;31.60;99.90
20750;DHT22;10535;50.664;4.564;2023-07-08T15:23:40;31.60;99.90
20750;DHT22;10535;50.664;4.564;2023-07-08T15:26:08;31.40;99.90
20750;DHT22;10535;50.664;4.564;2023-07-08T15:31:23;31.80;99.90
20750;DHT22;10535;50.664;4.564;2023-07-08T15:33:52;31.70;99.90
20750;DHT22;10535;50.664;4.564;2023-07-08T15:36:18;31.80;99.90
20750;DHT22;10535;50.664;4.564;2023-07-08T15:38:44;31.80;99.90
20750;DHT22;10535;50.664;4.564;2023-07-08T15:43:45;31.90;99.90
20750;DHT22;10535;50.664;4.564;2023-07-08T15:46:11;31.90;99.90
20750;DHT22;10535;50.664;4.564;2023-07-08T15:48:39;32.10;99.90
20750;DHT22;10535;50.664;4.564;2023-07-08T15:51:04;32.10;99.90
20750;DHT22;10535;50.664;4.564;2023-07-08T15:53:30;32.20;99.90
20750;DHT22;10535;50.664;4.564;2023-07-08T15:55:55;32.40;99.90
20750;DHT22;10535;50.664;4.564;2023-07-08T15:58:29;32.60;99.90
20750;DHT22;10535;50.664;4.564;2023-07-08T16:00:57;32.90;99.90
20750;DHT22;10535;50.664;4.564;2023-07-08T16:03:26;33.10;99.90
20750;DHT22;10535;50.664;4.564;2023-07-08T16:05:53;33.10;99.90
20750;DHT22;10535;50.664;4.564;2023-07-08T16:08:19;32.90;99.90
20750;DHT22;10535;50.664;4.564;2023-07-08T16:10:51;33.10;99.90
20750;DHT22;10535;50.664;4.564;2023-07-08T16:13:22;32.90;99.90
20750;DHT22;10535;50.664;4.564;2023-07-08T16:15:48;33.10;99.90
20750;DHT22;10535;50.664;4.564;2023-07-08T16:18:14;33.10;99.90
20750;DHT22;10535;50.664;4.564;2023-07-08T16:20:39;33.00;99.90
20750;DHT22;10535;50.664;4.564;2023-07-08T16:23:05;33.00;99.90
20750;DHT22;10535;50.664;4.564;2023-07-08T16:25:35;32.80;99.90
20750;DHT22;10535;50.664;4.564;2023-07-08T16:28:02;32.90;99.90
20750;DHT22;10535;50.664;4.564;2023-07-08T16:30:28;33.00;99.90
20750;DHT22;10535;50.664;4.564;2023-07-08T16:32:54;33.30;99.90
20750;DHT22;10535;50.664;4.564;2023-07-08T16:35:21;33.70;99.90
20750;DHT22;10535;50.664;4.564;2023-07-08T16:37:48;33.90;99.90
20750;DHT22;10535;50.664;4.564;2023-07-08T16:40:21;34.00;99.90
20750;DHT22;10535;50.664;4.564;2023-07-08T16:42:49;34.10;99.90
20750;DHT22;10535;50.664;4.564;2023-07-08T16:45:18;34.20;99.90
20750;DHT22;10535;50.664;4.564;2023-07-08T16:47:46;34.10;99.90
20750;DHT22;10535;50.664;4.564;2023-07-08T16:50:13;34.10;99.90
20750;DHT22;10535;50.664;4.564;2023-07-08T16:52:39;33.90;99.90
20750;DHT22;10535;50.664;4.564;2023-07-08T16:57:34;33.60;99.90
20750;DHT22;10535;50.664;4.564;2023-07-08T17:00:00;33.50;99.90
20750;DHT22;10535;50.664;4.564;2023-07-08T17:02:26;33.40;99.90